Time;durP1;ratioP1;P1;durP2;ratioP2;P2;SDS_P1;SDS_P2;PMS_P1;PMS_P2;Temp;Humidity;BMP_temperature;BMP_pressure;BME280_temperature;BME280_humidity;BME280_pressure;Samples;Min_cycle;Max_cycle;Signal;HPM_P1;HPM_P2
2022/04/02 00:01:39;;;;;;;0.40;0.30;;;;;;;2.43;59.10;100537.88;5094289;28;20968;-67
2022/04/02 00:04:06;;;;;;;0.40;0.30;;;;;;;2.31;58.98;100538.03;5094589;28;20460;-65
2022/04/02 00:06:32;;;;;;;0.40;0.30;;;;;;;2.37;59.54;100538.88;5094478;28;20465;-66
2022/04/02 00:08:59;;;;;;;0.40;0.30;;;;;;;2.43;59.63;100535.22;5094180;28;20436;-65
2022/04/02 00:11:26;;;;;;;0.40;0.30;;;;;;;2.42;59.25;100530.94;5094432;28;20444;-65
2022/04/02 00:13:54;;;;;;;0.40;0.30;;;;;;;2.39;58.88;100537.59;5094317;28;20440;-65
2022/04/02 00:16:21;;;;;;;0.40;0.30;;;;;;;2.32;59.39;100530.81;5093547;28;20533;-66
2022/04/02 00:18:49;;;;;;;0.40;0.30;;;;;;;2.33;59.71;100543.91;5094381;28;20441;-67
2022/04/02 00:21:15;;;;;;;0.40;0.30;;;;;;;2.40;59.84;100535.72;5094238;28;20497;-66
2022/04/02 00:23:44;;;;;;;0.40;0.30;;;;;;;2.43;60.06;100540.56;5094191;28;20544;-66
2022/04/02 00:26:12;;;;;;;0.40;0.30;;;;;;;2.22;60.12;100540.31;5094146;28;20444;-65
2022/04/02 00:28:40;;;;;;;0.40;0.30;;;;;;;2.18;60.96;100541.84;5094110;28;20490;-66
2022/04/02 00:31:10;;;;;;;0.40;0.30;;;;;;;2.14;61.10;100539.94;5093965;28;20449;-65
2022/04/02 00:33:37;;;;;;;0.40;0.30;;;;;;;2.23;61.78;100549.94;5094137;28;20443;-66
2022/04/02 00:36:05;;;;;;;0.40;0.30;;;;;;;2.25;61.92;100545.13;5093822;28;20533;-67
2022/04/02 00:38:32;;;;;;;0.40;0.30;;;;;;;2.24;62.23;100540.06;5094800;28;20448;-65
2022/04/02 00:40:58;;;;;;;0.40;0.30;;;;;;;2.15;61.96;100542.34;5093501;28;20847;-65
2022/04/02 00:43:25;;;;;;;0.40;0.30;;;;;;;2.16;62.00;100540.47;5093891;28;20448;-66
2022/04/02 00:45:52;;;;;;;0.40;0.30;;;;;;;2.22;63.08;100540.31;5093772;28;20487;-65
2022/04/02 00:48:21;;;;;;;0.40;0.30;;;;;;;2.25;62.46;100542.47;5093881;28;20467;-66
2022/04/02 00:50:52;;;;;;;0.40;0.30;;;;;;;2.21;62.62;100536.03;5093516;28;20462;-66
2022/04/02 00:53:19;;;;;;;0.40;0.30;;;;;;;2.27;62.73;100548.38;5093504;28;20906;-65
2022/04/02 00:55:46;;;;;;;0.40;0.30;;;;;;;2.28;62.86;100541.97;5093228;28;20993;-66
2022/04/02 00:58:13;;;;;;;0.40;0.30;;;;;;;2.32;62.94;100544.16;5093233;28;20996;-66
2022/04/02 01:00:40;;;;;;;0.40;0.30;;;;;;;2.21;61.76;100541.38;5093588;28;20447;-65
2022/04/02 01:03:07;;;;;;;0.40;0.30;;;;;;;2.10;62.35;100542.28;5093553;28;20805;-66
2022/04/02 01:05:35;;;;;;;0.40;0.30;;;;;;;2.05;62.62;100541.41;5093537;28;20479;-67
2022/04/02 01:08:05;;;;;;;0.40;0.30;;;;;;;2.08;62.63;100535.53;5093412;28;20467;-67
2022/04/02 01:10:31;;;;;;;0.40;0.30;;;;;;;2.01;62.98;100541.06;5093447;28;20558;-66
2022/04/02 01:12:58;;;;;;;0.40;0.30;;;;;;;2.00;63.19;100552.81;5093467;28;20439;-66
2022/04/02 01:15:24;;;;;;;0.40;0.30;;;;;;;1.99;63.43;100551.19;5093353;28;20526;-66
2022/04/02 01:17:51;;;;;;;0.40;0.30;;;;;;;1.97;62.82;100551.44;5092980;28;20829;-66
2022/04/02 01:20:19;;;;;;;0.40;0.30;;;;;;;1.95;63.63;100552.75;5093374;28;20440;-65
2022/04/02 01:22:46;;;;;;;0.40;0.30;;;;;;;1.99;64.22;100559.19;5093304;28;20440;-66
2022/04/02 01:25:13;;;;;;;0.40;0.30;;;;;;;1.98;63.11;100566.41;5093308;28;20435;-66
2022/04/02 01:27:39;;;;;;;0.40;0.30;;;;;;;2.02;63.48;100564.06;5099089;28;20468;-66
2022/04/02 01:30:07;;;;;;;0.40;0.30;;;;;;;2.00;64.56;100575.00;5100053;28;20922;-66
2022/04/02 01:32:34;;;;;;;0.40;0.30;;;;;;;1.98;63.85;100562.94;5100044;28;20447;-69
2022/04/02 01:35:00;;;;;;;0.40;0.30;;;;;;;2.00;64.59;100564.31;5099892;28;20444;-68
2022/04/02 01:37:27;;;;;;;0.40;0.30;;;;;;;2.04;64.04;100556.63;5099573;28;20468;-68
2022/04/02 01:39:54;;;;;;;0.40;0.30;;;;;;;1.96;64.24;100557.03;5099964;28;20520;-68
2022/04/02 01:42:24;;;;;;;0.40;0.30;;;;;;;1.86;65.17;100559.53;5099934;28;20464;-68
2022/04/02 01:44:51;;;;;;;0.40;0.30;;;;;;;1.88;65.79;100549.44;5099875;28;20447;-68
2022/04/02 01:47:18;;;;;;;0.40;0.30;;;;;;;1.82;65.86;100553.88;5099822;28;20456;-68
2022/04/02 01:49:45;;;;;;;0.40;0.30;;;;;;;1.87;66.14;100555.81;5099849;28;20475;-68
2022/04/02 01:52:12;;;;;;;0.40;0.30;;;;;;;1.82;66.61;100561.91;5099843;28;20447;-68
2022/04/02 01:54:38;;;;;;;0.40;0.30;;;;;;;1.79;66.53;100561.56;5099909;28;20439;-68
2022/04/02 01:57:06;;;;;;;0.40;0.30;;;;;;;1.74;67.83;100563.09;5099795;28;20487;-68
2022/04/02 01:59:33;;;;;;;0.40;0.30;;;;;;;1.80;67.52;100553.31;5099515;28;20993;-67
2022/04/02 02:02:00;;;;;;;0.40;0.30;;;;;;;1.87;67.46;100555.81;5099422;28;20867;-68
2022/04/02 02:04:26;;;;;;;0.40;0.30;;;;;;;1.85;67.25;100566.72;5099775;28;20538;-67
2022/04/02 02:06:53;;;;;;;0.40;0.30;;;;;;;1.76;67.59;100566.31;5099688;28;20517;-67
2022/04/02 02:09:19;;;;;;;0.40;0.30;;;;;;;1.80;67.87;100564.00;5099675;28;20444;-67
2022/04/02 02:11:47;;;;;;;0.40;0.30;;;;;;;1.69;68.30;100549.69;5099682;28;20448;-67
2022/04/02 02:14:15;;;;;;;0.40;0.30;;;;;;;1.69;67.83;100551.53;5099663;28;20527;-67
2022/04/02 02:16:41;;;;;;;0.40;0.30;;;;;;;1.72;67.92;100556.38;5099580;28;20910;-68
2022/04/02 02:19:08;;;;;;;0.40;0.30;;;;;;;1.69;67.72;100555.03;5099626;28;20448;-68
2022/04/02 02:21:34;;;;;;;0.40;0.30;;;;;;;1.67;68.88;100551.78;5099271;28;20444;-69
2022/04/02 02:24:01;;;;;;;0.40;0.30;;;;;;;1.57;69.24;100553.47;5099609;28;20448;-67
2022/04/02 02:26:27;;;;;;;0.40;0.30;;;;;;;1.60;68.42;100559.16;5099498;28;20452;-67
2022/04/02 02:28:54;;;;;;;0.40;0.30;;;;;;;1.69;69.20;100560.34;5099453;28;20448;-67
2022/04/02 02:31:21;;;;;;;0.40;0.30;;;;;;;1.63;68.89;100555.97;5099499;28;20444;-67
2022/04/02 02:36:32;;;;;;;0.40;0.30;;;;;;;1.71;68.97;100552.09;5099024;28;20557;-69
2022/04/02 02:38:59;;;;;;;0.40;0.30;;;;;;;1.51;69.99;100552.59;5096091;28;20795;-70
2022/04/02 02:41:25;;;;;;;0.40;0.30;;;;;;;1.56;70.02;100555.34;5095945;28;20433;-68
2022/04/02 02:43:52;;;;;;;0.40;0.30;;;;;;;1.47;69.97;100560.25;5096296;28;20442;-67
2022/04/02 02:46:18;;;;;;;0.40;0.30;;;;;;;1.46;70.65;100563.16;5096046;28;20451;-68
2022/04/02 02:48:47;;;;;;;0.40;0.30;;;;;;;1.56;70.26;100560.69;5096064;28;20452;-67
2022/04/02 02:51:13;;;;;;;0.40;0.30;;;;;;;1.61;70.28;100560.75;5096011;28;20493;-67
2022/04/02 02:53:40;;;;;;;0.40;0.30;;;;;;;1.59;69.74;100564.72;5095893;28;20447;-68
2022/04/02 02:56:06;;;;;;;0.40;0.30;;;;;;;1.55;71.09;100560.91;5095857;28;20480;-68
2022/04/02 02:58:33;;;;;;;0.40;0.30;;;;;;;1.55;71.10;100567.06;5095945;28;20436;-67
2022/04/02 03:01:00;;;;;;;0.40;0.30;;;;;;;1.69;71.05;100560.34;5095819;28;20452;-67
2022/04/02 03:03:27;;;;;;;0.40;0.30;;;;;;;1.75;70.77;100563.91;5095513;28;20934;-67
2022/04/02 03:05:55;;;;;;;0.40;0.30;;;;;;;1.78;70.79;100566.09;5095767;28;20535;-66
2022/04/02 03:08:21;;;;;;;0.40;0.30;;;;;;;1.86;70.56;100576.38;5095671;28;20474;-66
2022/04/02 03:10:47;;;;;;;0.40;0.30;;;;;;;1.82;70.37;100574.44;5095700;28;20443;-69
2022/04/02 03:13:14;;;;;;;0.40;0.30;;;;;;;1.79;70.53;100572.25;5095652;28;20781;-65
2022/04/02 03:15:41;;;;;;;0.40;0.30;;;;;;;1.74;70.92;100572.97;5095125;28;20816;-67
2022/04/02 03:18:09;;;;;;;0.40;0.30;;;;;;;1.63;71.20;100572.00;5095145;28;20472;-66
2022/04/02 03:20:37;;;;;;;0.40;0.30;;;;;;;1.75;71.45;100571.91;5095324;28;20531;-67
2022/04/02 03:23:06;;;;;;;0.40;0.30;;;;;;;1.64;72.21;100565.63;5095373;28;20498;-66
2022/04/02 03:25:33;;;;;;;0.40;0.30;;;;;;;1.61;71.57;100568.75;5095352;28;20447;-67
2022/04/02 03:28:00;;;;;;;0.40;0.30;;;;;;;1.56;72.31;100571.34;5094907;28;21058;-67
2022/04/02 03:30:27;;;;;;;0.40;0.30;;;;;;;1.67;72.63;100578.47;5095242;28;20436;-66
2022/04/02 03:32:54;;;;;;;0.40;0.30;;;;;;;1.71;71.86;100579.59;5095350;28;20451;-67
2022/04/02 03:35:21;;;;;;;0.40;0.30;;;;;;;1.76;71.27;100573.53;5095126;28;20531;-67
2022/04/02 03:37:50;;;;;;;0.40;0.30;;;;;;;1.74;70.77;100581.00;5094639;28;20488;-67
2022/04/02 03:40:20;;;;;;;0.50;0.30;;;;;;;1.56;70.86;100575.88;5094784;28;20949;-67
2022/04/02 03:42:46;;;;;;;0.40;0.30;;;;;;;1.59;70.69;100581.53;5095028;28;20432;-67
2022/04/02 03:45:15;;;;;;;0.40;0.30;;;;;;;1.51;70.56;100580.09;5095001;28;20494;-67
2022/04/02 03:47:42;;;;;;;0.40;0.30;;;;;;;1.30;72.04;100590.63;5094840;28;20456;-67
2022/04/02 03:50:09;;;;;;;0.40;0.30;;;;;;;1.44;72.56;100589.28;5093747;28;20441;-69
2022/04/02 03:52:36;;;;;;;0.40;0.30;;;;;;;1.50;72.07;100593.66;5094840;28;20451;-70
2022/04/02 03:55:04;;;;;;;0.40;0.30;;;;;;;1.46;71.51;100601.34;5094824;28;20440;-70
2022/04/02 03:57:33;;;;;;;0.40;0.30;;;;;;;1.45;71.73;100598.91;5094631;28;20484;-69
2022/04/02 03:59:59;;;;;;;0.40;0.30;;;;;;;1.45;72.45;100606.91;5094373;28;21007;-69
2022/04/02 04:02:26;;;;;;;0.40;0.30;;;;;;;1.54;71.54;100600.13;5094676;28;20436;-69
2022/04/02 04:04:52;;;;;;;0.40;0.30;;;;;;;1.52;72.19;100602.25;5094577;28;20440;-69
2022/04/02 04:07:19;;;;;;;0.40;0.30;;;;;;;1.51;71.77;100600.63;5094563;28;20452;-70
2022/04/02 04:09:45;;;;;;;0.40;0.30;;;;;;;1.48;72.61;100604.56;5094528;28;20468;-69
2022/04/02 04:12:14;;;;;;;0.40;0.30;;;;;;;1.56;72.27;100600.72;5094470;28;20447;-69
2022/04/02 04:14:42;;;;;;;0.40;0.30;;;;;;;1.60;71.77;100607.19;5094398;28;20445;-70
2022/04/02 04:17:08;;;;;;;0.40;0.30;;;;;;;1.59;71.72;100618.91;5094224;28;20542;-69
2022/04/02 04:19:35;;;;;;;0.40;0.30;;;;;;;1.56;72.43;100610.59;5094334;28;20440;-70
2022/04/02 04:22:03;;;;;;;0.40;0.30;;;;;;;1.66;71.78;100616.91;5093959;28;20452;-69
2022/04/02 04:24:30;;;;;;;0.40;0.30;;;;;;;1.61;72.29;100613.34;5094292;28;20444;-69
2022/04/02 04:26:58;;;;;;;0.40;0.30;;;;;;;1.58;72.66;100611.13;5094114;28;20535;-69
2022/04/02 04:29:24;;;;;;;0.40;0.30;;;;;;;1.67;72.71;100623.03;5094096;28;20468;-69
2022/04/02 04:31:52;;;;;;;0.40;0.30;;;;;;;1.55;72.92;100617.78;5094163;28;20441;-69
2022/04/02 04:34:19;;;;;;;0.40;0.30;;;;;;;1.59;73.30;100624.25;5094176;28;20443;-67
2022/04/02 04:36:46;;;;;;;0.40;0.30;;;;;;;1.72;73.25;100629.28;5093936;28;20588;-66
2022/04/02 04:39:12;;;;;;;0.40;0.30;;;;;;;1.83;72.28;100630.28;5094120;28;20452;-68
2022/04/02 04:41:41;;;;;;;0.40;0.30;;;;;;;1.86;71.98;100635.13;5093626;28;20451;-67
2022/04/02 04:44:08;;;;;;;0.40;0.30;;;;;;;1.86;71.69;100636.97;5094241;28;20853;-66
2022/04/02 04:46:34;;;;;;;0.40;0.30;;;;;;;1.86;72.11;100644.97;5093457;28;20461;-66
2022/04/02 04:49:02;;;;;;;0.40;0.30;;;;;;;1.89;72.78;100645.31;5093809;28;20441;-65
2022/04/02 04:51:28;;;;;;;0.40;0.30;;;;;;;1.95;71.75;100649.72;5093726;28;20448;-65
2022/04/02 04:53:55;;;;;;;0.40;0.30;;;;;;;1.79;71.02;100647.03;5093328;28;20937;-65
2022/04/02 04:56:21;;;;;;;0.40;0.30;;;;;;;1.69;71.12;100643.13;5093603;28;20530;-66
2022/04/02 04:58:48;;;;;;;0.40;0.30;;;;;;;1.49;72.21;100650.75;5093578;28;20451;-65
2022/04/02 05:01:14;;;;;;;0.40;0.30;;;;;;;1.60;72.66;100643.75;5093274;28;20444;-65
2022/04/02 05:03:41;;;;;;;0.40;0.30;;;;;;;1.64;72.20;100652.88;5093560;28;20436;-66
2022/04/02 05:06:12;;;;;;;0.40;0.30;;;;;;;1.65;72.03;100650.00;5093424;28;20797;-65
2022/04/02 05:08:38;;;;;;;0.40;0.30;;;;;;;1.60;72.74;100662.44;5093602;28;20424;-65
2022/04/02 05:11:05;;;;;;;0.40;0.33;;;;;;;1.68;72.62;100654.84;5093481;28;20440;-63
2022/04/02 05:13:32;;;;;;;0.40;0.30;;;;;;;1.76;71.59;100662.44;5093489;28;20494;-63
2022/04/02 05:15:59;;;;;;;0.40;0.30;;;;;;;1.80;71.93;100661.97;5093476;28;20449;-63
2022/04/02 05:18:26;;;;;;;0.40;0.30;;;;;;;1.65;71.99;100665.19;5093401;28;20479;-63
2022/04/02 05:20:53;;;;;;;0.40;0.30;;;;;;;1.63;72.53;100667.28;5093341;28;20436;-64
2022/04/02 05:23:21;;;;;;;0.40;0.30;;;;;;;1.61;73.27;100669.41;5093097;28;20937;-63
2022/04/02 05:25:47;;;;;;;0.40;0.30;;;;;;;1.48;73.34;100662.50;5093339;28;20444;-64
2022/04/02 05:28:14;;;;;;;0.40;0.30;;;;;;;1.47;73.49;100666.22;5093001;28;20977;-63
2022/04/02 05:30:40;;;;;;;1.00;0.77;;;;;;;1.68;73.36;100672.72;5093203;28;20440;-64
2022/04/02 05:33:07;;;;;;;2.50;2.40;;;;;;;1.73;72.23;100670.97;5093352;28;20447;-62
2022/04/02 05:35:36;;;;;;;0.40;0.30;;;;;;;1.70;72.78;100676.78;5093233;28;20448;-66
2022/04/02 05:38:02;;;;;;;0.40;0.30;;;;;;;1.84;72.49;100690.63;5092721;28;20597;-66
2022/04/02 05:40:30;;;;;;;0.40;0.30;;;;;;;1.82;72.33;100682.06;5093232;28;20441;-65
2022/04/02 05:42:57;;;;;;;0.40;0.30;;;;;;;1.84;72.45;100689.81;5092891;28;20938;-66
2022/04/02 05:45:23;;;;;;;0.40;0.30;;;;;;;1.95;72.74;100687.09;5093106;28;20448;-66
2022/04/02 05:47:53;;;;;;;0.40;0.30;;;;;;;1.92;72.74;100697.44;5093071;28;20829;-66
2022/04/02 05:50:22;;;;;;;0.40;0.30;;;;;;;2.17;72.04;100692.53;5092820;28;20972;-65
2022/04/02 05:52:50;;;;;;;0.40;0.30;;;;;;;2.34;71.19;100694.38;5093028;28;20489;-66
2022/04/02 05:55:17;;;;;;;0.40;0.30;;;;;;;2.49;71.17;100694.63;5093032;28;20468;-66
2022/04/02 05:57:46;;;;;;;0.40;0.30;;;;;;;2.64;70.70;100699.38;5092568;28;21143;-66
2022/04/02 06:00:15;;;;;;;0.40;0.30;;;;;;;2.75;69.16;100707.31;5093009;28;20497;-66
2022/04/02 06:02:42;;;;;;;0.40;0.30;;;;;;;2.72;68.76;100707.81;5093024;28;20535;-65
2022/04/02 06:05:09;;;;;;;0.40;0.30;;;;;;;2.68;69.49;100706.66;5092960;28;20436;-66
2022/04/02 06:07:36;;;;;;;0.40;0.30;;;;;;;2.64;69.03;100713.56;5092644;28;20461;-64
2022/04/02 06:10:04;;;;;;;0.40;0.30;;;;;;;2.64;69.73;100710.88;5092642;28;20447;-66
2022/04/02 06:12:31;;;;;;;0.40;0.30;;;;;;;2.76;69.58;100714.28;5092939;28;20527;-66
2022/04/02 06:15:00;;;;;;;0.40;0.30;;;;;;;2.64;69.27;100723.44;5096538;28;20437;-63
2022/04/02 06:17:26;;;;;;;0.40;0.30;;;;;;;2.68;69.92;100717.38;5096215;28;20837;-62
2022/04/02 06:19:53;;;;;;;0.40;0.30;;;;;;;2.88;69.20;100721.38;5096322;28;20448;-64
2022/04/02 06:22:20;;;;;;;0.40;0.30;;;;;;;2.99;68.53;100725.81;5096698;28;20451;-64
2022/04/02 06:24:46;;;;;;;0.40;0.30;;;;;;;2.96;69.08;100723.63;5096328;28;20440;-66
2022/04/02 06:27:13;;;;;;;0.40;0.30;;;;;;;3.07;68.76;100729.94;5096576;28;20460;-64
2022/04/02 06:29:39;;;;;;;0.40;0.30;;;;;;;3.17;68.68;100730.88;5096599;28;20454;-66
2022/04/02 06:32:08;;;;;;;0.40;0.30;;;;;;;3.24;68.22;100723.50;5096141;28;20937;-64
2022/04/02 06:34:34;;;;;;;0.40;0.30;;;;;;;3.14;67.78;100731.38;5096308;28;20451;-65
2022/04/02 06:37:01;;;;;;;0.40;0.30;;;;;;;3.10;68.43;100735.63;5095889;28;20488;-64
2022/04/02 06:39:27;;;;;;;0.40;0.30;;;;;;;3.12;68.13;100730.00;5097357;28;20813;-65
2022/04/02 06:41:54;;;;;;;0.40;0.30;;;;;;;3.16;67.72;100745.31;5096212;28;20497;-65
2022/04/02 06:44:20;;;;;;;0.40;0.30;;;;;;;3.35;67.38;100727.09;5096200;28;20444;-64
2022/04/02 06:46:46;;;;;;;0.40;0.30;;;;;;;3.51;67.40;100738.78;5095718;28;20543;-66
2022/04/02 06:49:14;;;;;;;0.40;0.30;;;;;;;3.59;67.17;100729.53;5096155;28;20444;-65
2022/04/02 06:51:41;;;;;;;0.40;0.30;;;;;;;3.80;66.29;100742.06;5096129;28;20448;-64
2022/04/02 06:54:07;;;;;;;0.40;0.30;;;;;;;3.91;65.60;100733.06;5096089;28;20467;-65
2022/04/02 06:56:34;;;;;;;0.40;0.30;;;;;;;4.09;64.11;100742.63;5096017;28;20490;-65
2022/04/02 06:59:00;;;;;;;0.40;0.30;;;;;;;4.15;64.83;100733.53;5095934;28;20487;-65
2022/04/02 07:01:27;;;;;;;0.40;0.30;;;;;;;4.17;63.44;100731.44;5095857;28;20440;-66
2022/04/02 07:03:53;;;;;;;0.40;0.30;;;;;;;4.09;63.49;100739.94;5095504;28;20828;-64
2022/04/02 07:06:21;;;;;;;0.40;0.30;;;;;;;4.27;64.00;100738.75;5095500;28;20444;-64
2022/04/02 07:08:47;;;;;;;0.40;0.30;;;;;;;4.37;63.13;100746.06;5095707;28;20444;-68
2022/04/02 07:11:14;;;;;;;0.40;0.30;;;;;;;4.17;63.32;100738.69;5095842;28;20436;-69
2022/04/02 07:13:40;;;;;;;0.40;0.30;;;;;;;4.24;64.33;100734.69;5095890;28;20440;-68
2022/04/02 07:16:07;;;;;;;0.40;0.30;;;;;;;4.36;63.77;100750.63;5095837;28;20444;-69
2022/04/02 07:18:35;;;;;;;0.40;0.30;;;;;;;4.61;62.69;100743.88;5095584;28;20487;-66
2022/04/02 07:21:02;;;;;;;0.40;0.40;;;;;;;4.70;61.69;100748.50;5095548;28;20440;-67
2022/04/02 07:23:30;;;;;;;0.50;0.50;;;;;;;4.70;61.52;100759.22;5095103;28;20479;-66
2022/04/02 07:25:57;;;;;;;0.40;0.30;;;;;;;4.63;61.05;100747.88;5095211;28;20440;-66
2022/04/02 07:28:25;;;;;;;0.50;0.50;;;;;;;4.82;60.78;100756.31;5095320;28;20900;-65
2022/04/02 07:30:52;;;;;;;0.40;0.30;;;;;;;4.90;60.64;100771.16;5095305;28;20448;-66
2022/04/02 07:33:18;;;;;;;0.40;0.30;;;;;;;4.76;60.37;100768.09;5095191;28;20827;-66
2022/04/02 07:35:53;;;;;;;0.40;0.30;;;;;;;4.75;60.11;100761.13;5095117;28;20470;-67
2022/04/02 07:38:22;;;;;;;0.40;0.30;;;;;;;4.77;58.93;100765.16;5094547;28;20940;-67
2022/04/02 07:40:55;;;;;;;0.40;0.30;;;;;;;4.71;58.83;100766.19;5094956;28;20445;-66
2022/04/02 07:43:30;;;;;;;0.40;0.30;;;;;;;4.93;59.38;100770.63;5095042;28;20520;-66
2022/04/02 07:46:04;;;;;;;0.40;0.30;;;;;;;4.96;59.14;100768.25;5094965;28;20473;-66
2022/04/02 07:48:32;;;;;;;0.40;0.30;;;;;;;4.67;57.46;100769.66;5094971;28;20489;-66
2022/04/02 07:51:00;;;;;;;0.40;0.30;;;;;;;4.70;58.13;100771.81;5094926;28;20448;-66
2022/04/02 07:53:34;;;;;;;0.40;0.30;;;;;;;4.95;58.72;100771.19;5094874;28;20448;-67
2022/04/02 07:56:04;;;;;;;0.40;0.30;;;;;;;5.18;57.34;100769.97;5094902;28;20440;-66
2022/04/02 07:58:33;;;;;;;0.40;0.30;;;;;;;5.38;56.82;100774.66;5094616;28;20488;-66
2022/04/02 08:01:04;;;;;;;0.40;0.30;;;;;;;5.57;56.10;100773.09;5094629;28;20456;-67
2022/04/02 08:03:31;;;;;;;0.40;0.30;;;;;;;5.78;55.76;100779.38;5094669;28;20425;-67
2022/04/02 08:05:58;;;;;;;0.40;0.30;;;;;;;5.80;55.69;100782.63;5094266;28;20440;-67
2022/04/02 08:08:25;;;;;;;0.40;0.30;;;;;;;5.84;53.67;100778.28;5094429;28;20534;-67
2022/04/02 08:10:52;;;;;;;0.40;0.30;;;;;;;5.77;54.04;100778.56;5094276;28;20476;-66
2022/04/02 08:13:22;;;;;;;0.40;0.30;;;;;;;5.82;53.16;100783.94;5094491;28;20447;-66
2022/04/02 08:15:49;;;;;;;0.40;0.30;;;;;;;5.76;53.02;100776.94;5094414;28;20441;-66
2022/04/02 08:18:20;;;;;;;0.40;0.30;;;;;;;5.99;54.01;100777.59;5093891;28;20518;-66
2022/04/02 08:20:46;;;;;;;0.40;0.30;;;;;;;5.97;53.43;100779.72;5094342;28;20429;-66
2022/04/02 08:23:13;;;;;;;0.40;0.30;;;;;;;5.96;52.04;100791.53;5094495;28;20464;-67
2022/04/02 08:25:47;;;;;;;0.40;0.30;;;;;;;5.65;49.47;100775.28;5094243;28;20443;-67
2022/04/02 08:28:23;;;;;;;0.40;0.30;;;;;;;5.85;48.95;100781.81;5094181;28;20463;-67
2022/04/02 08:30:59;;;;;;;0.40;0.30;;;;;;;5.89;47.65;100785.56;5094307;28;20511;-71
2022/04/02 08:33:46;;;;;;;0.40;0.30;;;;;;;6.00;46.98;100793.44;5094092;28;20436;-68
2022/04/02 08:36:20;;;;;;;0.40;0.30;;;;;;;5.86;45.85;100796.88;5093223;28;20436;-69
2022/04/02 08:39:00;;;;;;;0.40;0.30;;;;;;;5.79;45.33;100792.53;5093616;28;20965;-70
2022/04/02 08:42:03;;;;;;;0.40;0.30;;;;;;;5.98;45.17;100795.59;5093911;28;20434;-68
2022/04/02 08:44:59;;;;;;;0.40;0.30;;;;;;;5.97;44.73;100798.53;5093957;28;20455;-68
2022/04/02 08:48:06;;;;;;;0.40;0.30;;;;;;;5.68;44.71;100798.16;5091820;28;20484;-68
2022/04/02 08:50:36;;;;;;;0.40;0.30;;;;;;;5.66;45.69;100798.41;5090952;28;20452;-65
2022/04/02 08:53:17;;;;;;;0.40;0.30;;;;;;;5.79;45.78;100797.91;5093850;28;20444;-68
2022/04/02 08:55:48;;;;;;;0.40;0.30;;;;;;;6.04;45.14;100804.47;5093688;28;20465;-68
2022/04/02 08:58:24;;;;;;;0.40;0.30;;;;;;;6.32;45.53;100816.63;5093494;28;20487;-64
2022/04/02 09:01:04;;;;;;;0.40;0.30;;;;;;;6.31;45.22;100804.25;5093607;28;20432;-67
2022/04/02 09:03:55;;;;;;;0.40;0.30;;;;;;;6.45;44.75;100808.03;5093575;28;20424;-67
2022/04/02 09:06:48;;;;;;;0.40;0.30;;;;;;;6.57;44.96;100805.09;5093512;28;20417;-70
2022/04/02 09:09:31;;;;;;;0.40;0.30;;;;;;;6.49;44.09;100805.63;5093577;28;20420;-69
2022/04/02 09:12:15;;;;;;;0.40;0.30;;;;;;;6.38;43.31;100809.38;5093488;28;20489;-68
2022/04/02 09:15:05;;;;;;;0.40;0.30;;;;;;;6.44;44.52;100800.25;5093438;28;20431;-68
2022/04/02 09:17:38;;;;;;;0.40;0.30;;;;;;;6.54;42.99;100808.31;5093367;28;20467;-69
2022/04/02 09:20:21;;;;;;;0.70;0.70;;;;;;;6.58;44.08;100810.19;5093372;28;20447;-68
2022/04/02 09:23:06;;;;;;;0.40;0.30;;;;;;;6.91;44.27;100797.28;5093145;28;20409;-69
2022/04/02 09:26:15;;;;;;;0.40;0.30;;;;;;;7.20;42.54;100805.56;5093432;28;20428;-69
2022/04/02 09:28:43;;;;;;;0.40;0.30;;;;;;;6.96;42.76;100810.72;5093410;28;20427;-70
2022/04/02 09:31:55;;;;;;;0.40;0.30;;;;;;;6.87;42.51;100806.97;5093342;28;20531;-67
2022/04/02 09:34:58;;;;;;;0.40;0.30;;;;;;;7.19;42.50;100817.44;5092981;28;20491;-68
2022/04/02 09:37:55;;;;;;;0.40;0.30;;;;;;;7.50;42.61;100812.75;5092828;28;20487;-68
2022/04/02 09:40:34;;;;;;;0.40;0.30;;;;;;;7.49;41.25;100818.44;5093081;28;20471;-68
2022/04/02 09:43:06;;;;;;;0.40;0.30;;;;;;;7.50;41.31;100820.03;5093012;28;20813;-69
2022/04/02 09:45:44;;;;;;;0.40;0.30;;;;;;;7.53;41.89;100814.13;5093472;28;20800;-68
2022/04/02 09:48:19;;;;;;;0.40;0.30;;;;;;;7.65;42.21;100817.28;5095806;28;20939;-68
2022/04/02 09:50:49;;;;;;;0.40;0.30;;;;;;;7.40;41.25;100809.31;5097529;28;21047;-67
2022/04/02 09:53:24;;;;;;;0.40;0.30;;;;;;;7.19;41.66;100806.66;5098050;28;20432;-68
2022/04/02 09:56:02;;;;;;;0.40;0.30;;;;;;;7.54;42.15;100800.34;5098098;28;20434;-68
2022/04/02 09:58:50;;;;;;;0.40;0.30;;;;;;;7.80;41.61;100792.97;5097187;28;20488;-69
2022/04/02 10:01:27;;;;;;;0.40;0.30;;;;;;;8.09;41.42;100811.16;5097342;28;20949;-70
2022/04/02 10:03:58;;;;;;;0.40;0.30;;;;;;;8.28;41.26;100804.03;5097753;28;20455;-69
2022/04/02 10:06:26;;;;;;;0.40;0.30;;;;;;;8.44;40.39;100812.84;5097846;28;20442;-67
2022/04/02 10:09:15;;;;;;;0.40;0.30;;;;;;;7.93;39.53;100796.94;5097320;28;20436;-68
2022/04/02 10:11:44;;;;;;;0.40;0.30;;;;;;;8.30;41.32;100799.16;5090880;28;20448;-67
2022/04/02 10:14:11;;;;;;;0.40;0.30;;;;;;;8.58;40.18;100794.09;5097295;28;20510;-68
2022/04/02 10:16:41;;;;;;;0.40;0.30;;;;;;;8.44;40.70;100807.44;5097742;28;20506;-69
2022/04/02 10:19:09;;;;;;;0.40;0.30;;;;;;;8.39;40.93;100804.78;5095365;28;20491;-69
2022/04/02 10:21:37;;;;;;;0.40;0.30;;;;;;;8.34;40.91;100799.41;5096882;28;20463;-69
2022/04/02 10:24:12;;;;;;;0.40;0.30;;;;;;;8.16;40.86;100800.84;5097055;28;20463;-68
2022/04/02 10:26:41;;;;;;;0.40;0.30;;;;;;;8.06;40.42;100807.13;5097345;28;20471;-69
2022/04/02 10:29:12;;;;;;;0.40;0.30;;;;;;;8.27;40.78;100798.88;5096788;28;20778;-68
2022/04/02 10:31:48;;;;;;;0.40;0.30;;;;;;;8.32;40.36;100805.09;5096951;28;20472;-67
2022/04/02 10:34:26;;;;;;;0.40;0.30;;;;;;;8.29;40.53;100794.84;5096603;28;20424;-69
2022/04/02 10:37:00;;;;;;;0.40;0.30;;;;;;;8.27;39.45;100797.00;5096225;28;20479;-68
2022/04/02 10:39:28;;;;;;;0.40;0.30;;;;;;;8.32;39.19;100799.69;5096205;28;20475;-68
2022/04/02 10:42:03;;;;;;;0.40;0.30;;;;;;;8.37;39.96;100785.38;5096609;28;20440;-68
2022/04/02 10:44:44;;;;;;;0.50;0.40;;;;;;;8.48;40.25;100789.59;5098281;28;20436;-68
2022/04/02 10:47:13;;;;;;;0.40;0.30;;;;;;;8.75;39.72;100791.81;5097061;28;21028;-68
2022/04/02 10:49:41;;;;;;;0.40;0.30;;;;;;;8.93;40.25;100781.38;5096464;28;20440;-69
2022/04/02 10:52:11;;;;;;;0.40;0.30;;;;;;;9.07;38.40;100785.00;5096829;28;20432;-68
2022/04/02 10:54:40;;;;;;;0.40;0.30;;;;;;;9.31;39.32;100779.66;5095992;28;20485;-70
2022/04/02 10:57:09;;;;;;;0.40;0.30;;;;;;;9.23;38.03;100780.28;5097029;28;20837;-70
2022/04/02 10:59:39;;;;;;;0.40;0.30;;;;;;;9.24;37.56;100771.88;5095011;28;20488;-68
2022/04/02 11:02:20;;;;;;;0.40;0.30;;;;;;;8.84;37.70;100790.09;5095825;28;20449;-68
2022/04/02 11:04:58;;;;;;;0.40;0.30;;;;;;;8.80;38.97;100791.75;5096105;28;20475;-68
2022/04/02 11:07:27;;;;;;;0.40;0.30;;;;;;;8.37;38.43;100768.34;5095477;28;21039;-67
2022/04/02 11:09:54;;;;;;;0.40;0.30;;;;;;;8.09;38.42;100784.16;5095709;28;20462;-66
2022/04/02 11:12:28;;;;;;;0.40;0.30;;;;;;;8.27;39.32;100780.00;5095879;28;20466;-66
2022/04/02 11:15:06;;;;;;;0.40;0.30;;;;;;;8.21;39.38;100783.84;5095594;28;20890;-66
2022/04/02 11:17:34;;;;;;;0.40;0.30;;;;;;;8.22;39.51;100780.84;5095993;28;20461;-66
2022/04/02 11:20:09;;;;;;;0.40;0.30;;;;;;;8.37;40.05;100796.19;5095529;28;20488;-66
2022/04/02 11:22:56;;;;;;;0.40;0.30;;;;;;;8.27;41.45;100806.97;5095629;28;20460;-67
2022/04/02 11:25:24;;;;;;;0.40;0.30;;;;;;;7.82;41.50;100800.78;5086990;28;20453;-66
2022/04/02 11:27:55;;;;;;;0.40;0.30;;;;;;;7.49;42.84;100807.66;5095418;28;20472;-67
2022/04/02 11:30:23;;;;;;;0.40;0.30;;;;;;;7.10;44.05;100794.00;5095596;28;20474;-65
2022/04/02 11:32:50;;;;;;;0.40;0.30;;;;;;;6.59;45.67;100811.00;5095357;28;20489;-66
2022/04/02 11:35:18;;;;;;;0.40;0.30;;;;;;;6.74;46.90;100812.91;5094564;28;20900;-66
2022/04/02 11:38:10;;;;;;;0.40;0.30;;;;;;;6.70;46.59;100811.81;5095047;28;20479;-65
2022/04/02 11:40:42;;;;;;;0.40;0.30;;;;;;;6.79;47.58;100816.41;5095139;28;20417;-66
2022/04/02 11:43:11;;;;;;;0.40;0.30;;;;;;;6.88;47.83;100813.16;5095154;28;20428;-66
2022/04/02 11:45:40;;;;;;;0.40;0.30;;;;;;;6.75;48.49;100818.00;5095085;28;20447;-65
2022/04/02 11:48:09;;;;;;;0.40;0.30;;;;;;;6.89;48.42;100820.16;5094845;28;20871;-64
2022/04/02 11:50:40;;;;;;;0.40;0.30;;;;;;;7.14;48.56;100828.22;5094704;28;20987;-65